sensor_id;sensor_type;location;lat;lon;timestamp;P1;durP1;ratioP1;P2;durP2;ratioP2
73571;SDS011;61854;48.510;-2.770;2023-07-31T00:00:30;14.20;;;4.88;;
73571;SDS011;61854;48.510;-2.770;2023-07-31T00:02:56;12.13;;;5.00;;
73571;SDS011;61854;48.510;-2.770;2023-07-31T00:05:21;22.40;;;5.10;;
73571;SDS011;61854;48.510;-2.770;2023-07-31T00:07:47;17.88;;;5.63;;
73571;SDS011;61854;48.510;-2.770;2023-07-31T00:10:13;16.52;;;4.68;;
73571;SDS011;61854;48.510;-2.770;2023-07-31T00:12:39;14.13;;;5.22;;
73571;SDS011;61854;48.510;-2.770;2023-07-31T00:15:07;15.23;;;5.40;;
73571;SDS011;61854;48.510;-2.770;2023-07-31T00:17:33;13.07;;;4.63;;
73571;SDS011;61854;48.510;-2.770;2023-07-31T00:19:59;17.73;;;5.28;;
73571;SDS011;61854;48.510;-2.770;2023-07-31T00:22:24;16.63;;;5.45;;
73571;SDS011;61854;48.510;-2.770;2023-07-31T00:24:50;13.40;;;4.30;;
73571;SDS011;61854;48.510;-2.770;2023-07-31T00:27:16;14.73;;;4.82;;
73571;SDS011;61854;48.510;-2.770;2023-07-31T00:29:42;12.82;;;4.78;;
73571;SDS011;61854;48.510;-2.770;2023-07-31T00:32:07;12.48;;;4.63;;
73571;SDS011;61854;48.510;-2.770;2023-07-31T00:34:33;18.75;;;5.13;;
73571;SDS011;61854;48.510;-2.770;2023-07-31T00:36:58;18.70;;;5.32;;
73571;SDS011;61854;48.510;-2.770;2023-07-31T00:39:24;20.15;;;5.35;;
73571;SDS011;61854;48.510;-2.770;2023-07-31T00:41:50;19.17;;;5.00;;
73571;SDS011;61854;48.510;-2.770;2023-07-31T00:44:15;12.95;;;4.72;;
73571;SDS011;61854;48.510;-2.770;2023-07-31T00:46:41;17.00;;;4.78;;
73571;SDS011;61854;48.510;-2.770;2023-07-31T00:49:07;17.20;;;4.45;;
73571;SDS011;61854;48.510;-2.770;2023-07-31T00:51:33;12.30;;;4.35;;
73571;SDS011;61854;48.510;-2.770;2023-07-31T00:53:59;14.93;;;4.75;;
73571;SDS011;61854;48.510;-2.770;2023-07-31T00:56:25;16.02;;;4.93;;
73571;SDS011;61854;48.510;-2.770;2023-07-31T00:58:52;18.67;;;5.40;;
73571;SDS011;61854;48.510;-2.770;2023-07-31T01:01:18;14.98;;;5.38;;
73571;SDS011;61854;48.510;-2.770;2023-07-31T01:03:44;15.32;;;4.38;;
73571;SDS011;61854;48.510;-2.770;2023-07-31T01:09:19;11.45;;;4.25;;
73571;SDS011;61854;48.510;-2.770;2023-07-31T01:12:06;11.57;;;3.72;;
73571;SDS011;61854;48.510;-2.770;2023-07-31T01:14:34;17.08;;;4.97;;
73571;SDS011;61854;48.510;-2.770;2023-07-31T01:17:00;17.05;;;4.65;;
73571;SDS011;61854;48.510;-2.770;2023-07-31T01:19:26;17.08;;;4.50;;
73571;SDS011;61854;48.510;-2.770;2023-07-31T01:27:15;10.02;;;3.70;;
73571;SDS011;61854;48.510;-2.770;2023-07-31T01:29:53;13.68;;;4.22;;
73571;SDS011;61854;48.510;-2.770;2023-07-31T01:32:28;14.50;;;4.38;;
73571;SDS011;61854;48.510;-2.770;2023-07-31T01:34:54;13.27;;;4.22;;
73571;SDS011;61854;48.510;-2.770;2023-07-31T01:37:22;14.35;;;4.28;;
73571;SDS011;61854;48.510;-2.770;2023-07-31T01:39:54;16.40;;;4.65;;
73571;SDS011;61854;48.510;-2.770;2023-07-31T01:42:20;13.18;;;4.57;;
73571;SDS011;61854;48.510;-2.770;2023-07-31T01:44:45;12.48;;;4.32;;
73571;SDS011;61854;48.510;-2.770;2023-07-31T01:47:11;12.15;;;4.03;;
73571;SDS011;61854;48.510;-2.770;2023-07-31T01:49:36;14.10;;;4.28;;
73571;SDS011;61854;48.510;-2.770;2023-07-31T01:52:02;11.98;;;4.22;;
73571;SDS011;61854;48.510;-2.770;2023-07-31T01:54:28;14.85;;;4.03;;
73571;SDS011;61854;48.510;-2.770;2023-07-31T01:56:54;13.57;;;4.00;;
73571;SDS011;61854;48.510;-2.770;2023-07-31T01:59:19;17.85;;;5.13;;
73571;SDS011;61854;48.510;-2.770;2023-07-31T02:01:45;10.57;;;4.15;;
73571;SDS011;61854;48.510;-2.770;2023-07-31T02:04:10;17.27;;;3.83;;
73571;SDS011;61854;48.510;-2.770;2023-07-31T02:06:36;10.60;;;3.78;;
73571;SDS011;61854;48.510;-2.770;2023-07-31T02:09:02;13.27;;;3.58;;
73571;SDS011;61854;48.510;-2.770;2023-07-31T02:11:28;13.20;;;3.70;;
73571;SDS011;61854;48.510;-2.770;2023-07-31T02:13:54;10.18;;;3.80;;
73571;SDS011;61854;48.510;-2.770;2023-07-31T02:16:19;6.88;;;3.25;;
73571;SDS011;61854;48.510;-2.770;2023-07-31T02:18:45;15.00;;;3.85;;
73571;SDS011;61854;48.510;-2.770;2023-07-31T02:21:11;13.75;;;4.25;;
73571;SDS011;61854;48.510;-2.770;2023-07-31T02:23:36;18.05;;;4.57;;
73571;SDS011;61854;48.510;-2.770;2023-07-31T02:26:02;12.95;;;4.10;;
73571;SDS011;61854;48.510;-2.770;2023-07-31T02:28:28;13.23;;;4.05;;
73571;SDS011;61854;48.510;-2.770;2023-07-31T02:30:54;13.65;;;4.50;;
73571;SDS011;61854;48.510;-2.770;2023-07-31T02:33:20;11.80;;;4.18;;
73571;SDS011;61854;48.510;-2.770;2023-07-31T02:35:45;10.80;;;3.53;;
73571;SDS011;61854;48.510;-2.770;2023-07-31T02:38:11;16.63;;;4.00;;
73571;SDS011;61854;48.510;-2.770;2023-07-31T02:40:37;13.13;;;3.78;;
73571;SDS011;61854;48.510;-2.770;2023-07-31T02:43:03;13.13;;;3.85;;
73571;SDS011;61854;48.510;-2.770;2023-07-31T02:45:29;15.45;;;4.43;;
73571;SDS011;61854;48.510;-2.770;2023-07-31T02:47:55;12.73;;;3.75;;
73571;SDS011;61854;48.510;-2.770;2023-07-31T02:50:20;10.50;;;3.85;;
73571;SDS011;61854;48.510;-2.770;2023-07-31T02:52:46;18.52;;;4.03;;
73571;SDS011;61854;48.510;-2.770;2023-07-31T02:55:12;13.68;;;4.07;;
73571;SDS011;61854;48.510;-2.770;2023-07-31T02:57:37;17.23;;;4.40;;
73571;SDS011;61854;48.510;-2.770;2023-07-31T03:00:03;13.20;;;3.85;;
73571;SDS011;61854;48.510;-2.770;2023-07-31T03:02:31;13.05;;;3.80;;
73571;SDS011;61854;48.510;-2.770;2023-07-31T03:04:57;12.40;;;3.55;;
73571;SDS011;61854;48.510;-2.770;2023-07-31T03:07:22;14.15;;;4.20;;
73571;SDS011;61854;48.510;-2.770;2023-07-31T03:09:48;13.25;;;3.55;;
73571;SDS011;61854;48.510;-2.770;2023-07-31T03:12:14;15.77;;;4.70;;
73571;SDS011;61854;48.510;-2.770;2023-07-31T03:14:40;11.32;;;3.72;;
73571;SDS011;61854;48.510;-2.770;2023-07-31T03:17:05;13.13;;;4.53;;
73571;SDS011;61854;48.510;-2.770;2023-07-31T03:19:31;12.63;;;3.80;;
73571;SDS011;61854;48.510;-2.770;2023-07-31T03:21:57;9.60;;;2.58;;
73571;SDS011;61854;48.510;-2.770;2023-07-31T03:24:23;10.60;;;3.72;;
73571;SDS011;61854;48.510;-2.770;2023-07-31T03:26:49;10.82;;;3.42;;
73571;SDS011;61854;48.510;-2.770;2023-07-31T03:29:15;14.98;;;4.22;;
73571;SDS011;61854;48.510;-2.770;2023-07-31T03:31:40;17.30;;;4.35;;
73571;SDS011;61854;48.510;-2.770;2023-07-31T03:34:06;13.32;;;2.83;;
73571;SDS011;61854;48.510;-2.770;2023-07-31T03:36:31;8.77;;;3.42;;
73571;SDS011;61854;48.510;-2.770;2023-07-31T03:38:57;12.10;;;3.17;;
73571;SDS011;61854;48.510;-2.770;2023-07-31T03:41:23;13.05;;;3.25;;
73571;SDS011;61854;48.510;-2.770;2023-07-31T03:43:49;12.98;;;3.80;;
73571;SDS011;61854;48.510;-2.770;2023-07-31T03:48:42;14.32;;;3.60;;
73571;SDS011;61854;48.510;-2.770;2023-07-31T03:51:08;9.30;;;3.10;;
73571;SDS011;61854;48.510;-2.770;2023-07-31T03:53:33;8.77;;;3.20;;
73571;SDS011;61854;48.510;-2.770;2023-07-31T03:55:59;16.48;;;4.13;;
73571;SDS011;61854;48.510;-2.770;2023-07-31T03:58:25;14.73;;;3.85;;
73571;SDS011;61854;48.510;-2.770;2023-07-31T04:00:50;14.35;;;3.75;;
73571;SDS011;61854;48.510;-2.770;2023-07-31T04:03:16;10.23;;;2.90;;
73571;SDS011;61854;48.510;-2.770;2023-07-31T04:05:41;16.55;;;4.70;;
73571;SDS011;61854;48.510;-2.770;2023-07-31T04:08:07;15.57;;;2.88;;
73571;SDS011;61854;48.510;-2.770;2023-07-31T04:10:33;11.52;;;2.90;;
73571;SDS011;61854;48.510;-2.770;2023-07-31T04:13:01;10.48;;;2.80;;
73571;SDS011;61854;48.510;-2.770;2023-07-31T04:15:27;9.65;;;2.90;;
73571;SDS011;61854;48.510;-2.770;2023-07-31T04:17:52;10.45;;;3.05;;
73571;SDS011;61854;48.510;-2.770;2023-07-31T04:20:18;12.57;;;2.78;;
73571;SDS011;61854;48.510;-2.770;2023-07-31T04:22:43;10.02;;;2.92;;
73571;SDS011;61854;48.510;-2.770;2023-07-31T04:25:09;8.35;;;2.75;;
73571;SDS011;61854;48.510;-2.770;2023-07-31T04:27:35;10.60;;;3.30;;
73571;SDS011;61854;48.510;-2.770;2023-07-31T04:30:00;10.23;;;2.97;;
73571;SDS011;61854;48.510;-2.770;2023-07-31T04:32:26;9.52;;;3.05;;
73571;SDS011;61854;48.510;-2.770;2023-07-31T04:34:52;9.20;;;2.90;;
73571;SDS011;61854;48.510;-2.770;2023-07-31T04:37:17;10.90;;;3.28;;
73571;SDS011;61854;48.510;-2.770;2023-07-31T04:39:43;10.20;;;3.00;;
73571;SDS011;61854;48.510;-2.770;2023-07-31T04:42:08;7.47;;;2.95;;
73571;SDS011;61854;48.510;-2.770;2023-07-31T04:44:34;8.63;;;2.70;;
73571;SDS011;61854;48.510;-2.770;2023-07-31T04:47:00;7.22;;;2.35;;
73571;SDS011;61854;48.510;-2.770;2023-07-31T04:49:27;8.07;;;3.03;;
73571;SDS011;61854;48.510;-2.770;2023-07-31T04:51:52;8.32;;;2.78;;
73571;SDS011;61854;48.510;-2.770;2023-07-31T04:54:18;10.13;;;3.15;;
73571;SDS011;61854;48.510;-2.770;2023-07-31T04:56:43;11.20;;;2.42;;
73571;SDS011;61854;48.510;-2.770;2023-07-31T04:59:10;8.75;;;2.95;;
73571;SDS011;61854;48.510;-2.770;2023-07-31T05:01:36;5.75;;;2.40;;
73571;SDS011;61854;48.510;-2.770;2023-07-31T05:04:01;8.20;;;2.47;;
73571;SDS011;61854;48.510;-2.770;2023-07-31T05:06:27;10.45;;;2.20;;
73571;SDS011;61854;48.510;-2.770;2023-07-31T05:08:53;8.10;;;2.22;;
73571;SDS011;61854;48.510;-2.770;2023-07-31T05:11:18;7.22;;;2.30;;
73571;SDS011;61854;48.510;-2.770;2023-07-31T05:13:44;6.70;;;2.20;;
73571;SDS011;61854;48.510;-2.770;2023-07-31T05:16:10;11.48;;;2.55;;
73571;SDS011;61854;48.510;-2.770;2023-07-31T05:18:35;5.80;;;2.00;;
73571;SDS011;61854;48.510;-2.770;2023-07-31T05:21:01;7.47;;;2.20;;
73571;SDS011;61854;48.510;-2.770;2023-07-31T05:23:27;7.97;;;2.47;;
73571;SDS011;61854;48.510;-2.770;2023-07-31T05:25:52;8.05;;;2.00;;
73571;SDS011;61854;48.510;-2.770;2023-07-31T05:28:18;7.55;;;2.22;;
73571;SDS011;61854;48.510;-2.770;2023-07-31T05:30:44;11.20;;;2.40;;
73571;SDS011;61854;48.510;-2.770;2023-07-31T05:33:09;5.57;;;1.73;;
73571;SDS011;61854;48.510;-2.770;2023-07-31T05:35:35;4.40;;;1.67;;
73571;SDS011;61854;48.510;-2.770;2023-07-31T05:38:00;3.85;;;1.60;;
73571;SDS011;61854;48.510;-2.770;2023-07-31T05:40:26;3.65;;;1.38;;
73571;SDS011;61854;48.510;-2.770;2023-07-31T05:42:52;5.85;;;2.00;;
73571;SDS011;61854;48.510;-2.770;2023-07-31T05:45:17;4.75;;;1.73;;
73571;SDS011;61854;48.510;-2.770;2023-07-31T05:47:43;3.80;;;1.40;;
73571;SDS011;61854;48.510;-2.770;2023-07-31T05:50:09;5.75;;;1.45;;
73571;SDS011;61854;48.510;-2.770;2023-07-31T05:52:34;4.45;;;1.65;;
73571;SDS011;61854;48.510;-2.770;2023-07-31T05:55:00;8.35;;;2.05;;
73571;SDS011;61854;48.510;-2.770;2023-07-31T05:57:26;4.60;;;1.20;;
73571;SDS011;61854;48.510;-2.770;2023-07-31T05:59:52;3.92;;;1.38;;
73571;SDS011;61854;48.510;-2.770;2023-07-31T06:02:18;4.72;;;1.30;;
73571;SDS011;61854;48.510;-2.770;2023-07-31T06:04:44;4.50;;;1.08;;
73571;SDS011;61854;48.510;-2.770;2023-07-31T06:07:09;3.53;;;1.25;;
73571;SDS011;61854;48.510;-2.770;2023-07-31T06:09:35;3.53;;;1.13;;
73571;SDS011;61854;48.510;-2.770;2023-07-31T06:12:04;2.85;;;1.20;;
73571;SDS011;61854;48.510;-2.770;2023-07-31T06:14:30;4.38;;;1.23;;
73571;SDS011;61854;48.510;-2.770;2023-07-31T06:16:56;2.10;;;0.90;;
73571;SDS011;61854;48.510;-2.770;2023-07-31T06:19:21;2.85;;;1.00;;
73571;SDS011;61854;48.510;-2.770;2023-07-31T06:21:47;5.93;;;1.30;;
73571;SDS011;61854;48.510;-2.770;2023-07-31T06:24:13;3.08;;;1.27;;
73571;SDS011;61854;48.510;-2.770;2023-07-31T06:26:43;2.40;;;0.90;;
73571;SDS011;61854;48.510;-2.770;2023-07-31T06:29:09;2.55;;;1.00;;
73571;SDS011;61854;48.510;-2.770;2023-07-31T06:31:35;2.58;;;0.90;;
73571;SDS011;61854;48.510;-2.770;2023-07-31T06:34:00;4.03;;;1.00;;
73571;SDS011;61854;48.510;-2.770;2023-07-31T06:36:26;1.90;;;0.73;;
73571;SDS011;61854;48.510;-2.770;2023-07-31T06:38:52;2.63;;;1.25;;
73571;SDS011;61854;48.510;-2.770;2023-07-31T06:41:17;3.33;;;1.08;;
73571;SDS011;61854;48.510;-2.770;2023-07-31T06:43:43;2.08;;;1.05;;
73571;SDS011;61854;48.510;-2.770;2023-07-31T06:46:08;3.20;;;1.15;;
73571;SDS011;61854;48.510;-2.770;2023-07-31T06:48:35;2.67;;;1.30;;
73571;SDS011;61854;48.510;-2.770;2023-07-31T06:51:02;4.03;;;1.30;;
73571;SDS011;61854;48.510;-2.770;2023-07-31T06:53:28;2.78;;;1.13;;
73571;SDS011;61854;48.510;-2.770;2023-07-31T06:55:54;6.82;;;1.80;;
73571;SDS011;61854;48.510;-2.770;2023-07-31T06:58:20;2.38;;;1.30;;
73571;SDS011;61854;48.510;-2.770;2023-07-31T07:00:45;4.68;;;1.80;;
73571;SDS011;61854;48.510;-2.770;2023-07-31T07:03:11;2.75;;;1.15;;
73571;SDS011;61854;48.510;-2.770;2023-07-31T07:05:39;3.75;;;1.50;;
73571;SDS011;61854;48.510;-2.770;2023-07-31T07:08:05;3.70;;;1.70;;
73571;SDS011;61854;48.510;-2.770;2023-07-31T07:10:31;5.00;;;1.52;;
73571;SDS011;61854;48.510;-2.770;2023-07-31T07:12:56;3.95;;;1.60;;
73571;SDS011;61854;48.510;-2.770;2023-07-31T07:15:22;4.80;;;1.80;;
73571;SDS011;61854;48.510;-2.770;2023-07-31T07:17:47;4.38;;;2.00;;
73571;SDS011;61854;48.510;-2.770;2023-07-31T07:20:13;3.90;;;1.55;;
73571;SDS011;61854;48.510;-2.770;2023-07-31T07:22:39;7.35;;;2.25;;
73571;SDS011;61854;48.510;-2.770;2023-07-31T07:25:06;4.93;;;2.00;;
73571;SDS011;61854;48.510;-2.770;2023-07-31T07:27:32;4.07;;;2.25;;
73571;SDS011;61854;48.510;-2.770;2023-07-31T07:29:58;6.78;;;2.30;;
73571;SDS011;61854;48.510;-2.770;2023-07-31T07:32:23;7.47;;;2.90;;
73571;SDS011;61854;48.510;-2.770;2023-07-31T07:34:49;10.20;;;2.80;;
73571;SDS011;61854;48.510;-2.770;2023-07-31T07:37:15;7.75;;;2.50;;
73571;SDS011;61854;48.510;-2.770;2023-07-31T07:39:40;8.45;;;2.75;;
73571;SDS011;61854;48.510;-2.770;2023-07-31T07:42:06;9.95;;;2.97;;
73571;SDS011;61854;48.510;-2.770;2023-07-31T07:44:32;8.88;;;2.92;;
73571;SDS011;61854;48.510;-2.770;2023-07-31T07:46:57;7.90;;;3.30;;
73571;SDS011;61854;48.510;-2.770;2023-07-31T07:49:23;5.78;;;2.47;;
73571;SDS011;61854;48.510;-2.770;2023-07-31T07:51:49;8.63;;;2.58;;
73571;SDS011;61854;48.510;-2.770;2023-07-31T07:54:14;10.30;;;3.15;;
73571;SDS011;61854;48.510;-2.770;2023-07-31T07:56:42;9.52;;;3.20;;
73571;SDS011;61854;48.510;-2.770;2023-07-31T07:59:08;8.63;;;3.05;;
73571;SDS011;61854;48.510;-2.770;2023-07-31T08:01:33;10.43;;;3.47;;
73571;SDS011;61854;48.510;-2.770;2023-07-31T08:04:00;8.35;;;2.45;;
73571;SDS011;61854;48.510;-2.770;2023-07-31T08:06:25;5.20;;;2.10;;
73571;SDS011;61854;48.510;-2.770;2023-07-31T08:08:51;9.02;;;2.92;;
73571;SDS011;61854;48.510;-2.770;2023-07-31T08:11:17;8.82;;;3.25;;
73571;SDS011;61854;48.510;-2.770;2023-07-31T08:13:42;9.02;;;3.20;;
73571;SDS011;61854;48.510;-2.770;2023-07-31T08:16:08;14.30;;;3.75;;
73571;SDS011;61854;48.510;-2.770;2023-07-31T08:18:35;10.07;;;3.53;;
73571;SDS011;61854;48.510;-2.770;2023-07-31T08:21:02;7.82;;;3.13;;
73571;SDS011;61854;48.510;-2.770;2023-07-31T08:23:28;9.65;;;3.80;;
73571;SDS011;61854;48.510;-2.770;2023-07-31T08:25:54;10.40;;;3.40;;
73571;SDS011;61854;48.510;-2.770;2023-07-31T08:28:20;9.18;;;3.65;;
73571;SDS011;61854;48.510;-2.770;2023-07-31T08:30:45;12.65;;;3.88;;
73571;SDS011;61854;48.510;-2.770;2023-07-31T08:33:11;9.35;;;3.75;;
73571;SDS011;61854;48.510;-2.770;2023-07-31T08:35:37;9.55;;;3.50;;
73571;SDS011;61854;48.510;-2.770;2023-07-31T08:38:02;8.88;;;2.65;;
73571;SDS011;61854;48.510;-2.770;2023-07-31T08:40:28;13.45;;;4.25;;
73571;SDS011;61854;48.510;-2.770;2023-07-31T08:42:54;8.55;;;3.17;;
73571;SDS011;61854;48.510;-2.770;2023-07-31T08:45:27;11.55;;;3.65;;
73571;SDS011;61854;48.510;-2.770;2023-07-31T08:47:53;11.75;;;4.30;;
73571;SDS011;61854;48.510;-2.770;2023-07-31T08:50:19;13.82;;;4.30;;
73571;SDS011;61854;48.510;-2.770;2023-07-31T08:52:46;9.63;;;3.17;;
73571;SDS011;61854;48.510;-2.770;2023-07-31T08:55:13;8.60;;;3.75;;
73571;SDS011;61854;48.510;-2.770;2023-07-31T08:57:39;12.90;;;3.65;;
73571;SDS011;61854;48.510;-2.770;2023-07-31T09:00:06;5.47;;;2.10;;
73571;SDS011;61854;48.510;-2.770;2023-07-31T09:05:19;7.65;;;3.40;;
73571;SDS011;61854;48.510;-2.770;2023-07-31T09:07:47;6.15;;;2.63;;
73571;SDS011;61854;48.510;-2.770;2023-07-31T09:10:14;8.10;;;3.40;;
73571;SDS011;61854;48.510;-2.770;2023-07-31T09:12:40;9.73;;;3.45;;
73571;SDS011;61854;48.510;-2.770;2023-07-31T09:15:09;9.73;;;3.75;;
73571;SDS011;61854;48.510;-2.770;2023-07-31T09:17:36;9.07;;;3.10;;
73571;SDS011;61854;48.510;-2.770;2023-07-31T09:20:21;7.00;;;2.72;;
73571;SDS011;61854;48.510;-2.770;2023-07-31T09:22:47;5.28;;;2.30;;
73571;SDS011;61854;48.510;-2.770;2023-07-31T09:25:17;7.88;;;2.88;;
73571;SDS011;61854;48.510;-2.770;2023-07-31T09:27:49;6.05;;;2.72;;
73571;SDS011;61854;48.510;-2.770;2023-07-31T09:30:15;11.45;;;2.70;;
73571;SDS011;61854;48.510;-2.770;2023-07-31T09:32:42;7.85;;;2.60;;
73571;SDS011;61854;48.510;-2.770;2023-07-31T09:35:22;6.82;;;2.85;;
73571;SDS011;61854;48.510;-2.770;2023-07-31T09:37:54;7.13;;;2.15;;
73571;SDS011;61854;48.510;-2.770;2023-07-31T09:42:52;6.50;;;2.15;;
73571;SDS011;61854;48.510;-2.770;2023-07-31T09:45:20;8.50;;;2.17;;
73571;SDS011;61854;48.510;-2.770;2023-07-31T09:47:46;5.80;;;2.05;;
73571;SDS011;61854;48.510;-2.770;2023-07-31T09:50:15;6.30;;;2.10;;
73571;SDS011;61854;48.510;-2.770;2023-07-31T09:52:41;3.28;;;1.60;;
73571;SDS011;61854;48.510;-2.770;2023-07-31T09:55:07;5.63;;;1.70;;
73571;SDS011;61854;48.510;-2.770;2023-07-31T09:57:36;4.93;;;1.27;;
73571;SDS011;61854;48.510;-2.770;2023-07-31T10:00:06;2.88;;;1.17;;
73571;SDS011;61854;48.510;-2.770;2023-07-31T10:02:34;2.90;;;1.25;;
73571;SDS011;61854;48.510;-2.770;2023-07-31T10:05:02;4.00;;;1.00;;
73571;SDS011;61854;48.510;-2.770;2023-07-31T10:07:28;3.20;;;1.30;;
73571;SDS011;61854;48.510;-2.770;2023-07-31T10:09:57;2.53;;;0.80;;
73571;SDS011;61854;48.510;-2.770;2023-07-31T10:12:27;3.95;;;0.93;;
73571;SDS011;61854;48.510;-2.770;2023-07-31T10:14:54;3.97;;;1.02;;
73571;SDS011;61854;48.510;-2.770;2023-07-31T10:17:21;1.73;;;0.57;;
73571;SDS011;61854;48.510;-2.770;2023-07-31T10:19:50;2.45;;;0.60;;
73571;SDS011;61854;48.510;-2.770;2023-07-31T10:22:16;2.30;;;0.80;;
73571;SDS011;61854;48.510;-2.770;2023-07-31T10:24:44;1.87;;;0.70;;
73571;SDS011;61854;48.510;-2.770;2023-07-31T10:27:10;2.35;;;0.77;;
73571;SDS011;61854;48.510;-2.770;2023-07-31T10:29:37;1.55;;;0.60;;
73571;SDS011;61854;48.510;-2.770;2023-07-31T10:32:04;1.52;;;0.43;;
73571;SDS011;61854;48.510;-2.770;2023-07-31T10:34:37;1.95;;;0.65;;
73571;SDS011;61854;48.510;-2.770;2023-07-31T10:40:10;1.58;;;0.60;;
73571;SDS011;61854;48.510;-2.770;2023-07-31T10:42:50;2.00;;;0.73;;
73571;SDS011;61854;48.510;-2.770;2023-07-31T10:45:25;1.70;;;0.50;;
73571;SDS011;61854;48.510;-2.770;2023-07-31T10:47:57;1.63;;;0.40;;
73571;SDS011;61854;48.510;-2.770;2023-07-31T10:50:25;1.73;;;0.60;;
73571;SDS011;61854;48.510;-2.770;2023-07-31T10:52:52;1.40;;;0.50;;
73571;SDS011;61854;48.510;-2.770;2023-07-31T10:55:32;2.33;;;0.60;;
73571;SDS011;61854;48.510;-2.770;2023-07-31T10:58:08;0.60;;;0.30;;
73571;SDS011;61854;48.510;-2.770;2023-07-31T11:00:39;0.82;;;0.40;;
73571;SDS011;61854;48.510;-2.770;2023-07-31T11:03:07;1.23;;;0.40;;
73571;SDS011;61854;48.510;-2.770;2023-07-31T11:05:42;0.47;;;0.25;;
73571;SDS011;61854;48.510;-2.770;2023-07-31T11:08:16;1.35;;;0.30;;
73571;SDS011;61854;48.510;-2.770;2023-07-31T11:10:44;1.90;;;0.38;;
73571;SDS011;61854;48.510;-2.770;2023-07-31T11:13:10;0.47;;;0.20;;
73571;SDS011;61854;48.510;-2.770;2023-07-31T11:15:36;1.48;;;0.40;;
73571;SDS011;61854;48.510;-2.770;2023-07-31T11:18:02;1.00;;;0.38;;
73571;SDS011;61854;48.510;-2.770;2023-07-31T11:20:30;0.57;;;0.28;;
73571;SDS011;61854;48.510;-2.770;2023-07-31T11:23:02;0.60;;;0.20;;
73571;SDS011;61854;48.510;-2.770;2023-07-31T11:25:30;1.80;;;0.20;;
73571;SDS011;61854;48.510;-2.770;2023-07-31T11:27:56;0.32;;;0.10;;
73571;SDS011;61854;48.510;-2.770;2023-07-31T11:30:32;3.33;;;0.25;;
73571;SDS011;61854;48.510;-2.770;2023-07-31T11:32:59;0.50;;;0.20;;
73571;SDS011;61854;48.510;-2.770;2023-07-31T11:35:32;1.27;;;0.20;;
73571;SDS011;61854;48.510;-2.770;2023-07-31T11:37:59;0.85;;;0.20;;
73571;SDS011;61854;48.510;-2.770;2023-07-31T11:40:25;0.10;;;0.10;;
73571;SDS011;61854;48.510;-2.770;2023-07-31T11:42:57;0.30;;;0.20;;
73571;SDS011;61854;48.510;-2.770;2023-07-31T11:45:24;0.40;;;0.20;;
73571;SDS011;61854;48.510;-2.770;2023-07-31T11:47:52;0.45;;;0.17;;
73571;SDS011;61854;48.510;-2.770;2023-07-31T11:50:18;0.50;;;0.25;;
73571;SDS011;61854;48.510;-2.770;2023-07-31T11:52:44;0.38;;;0.20;;
73571;SDS011;61854;48.510;-2.770;2023-07-31T11:55:13;0.88;;;0.25;;
73571;SDS011;61854;48.510;-2.770;2023-07-31T11:57:40;3.30;;;0.23;;
73571;SDS011;61854;48.510;-2.770;2023-07-31T12:00:09;1.02;;;0.28;;
73571;SDS011;61854;48.510;-2.770;2023-07-31T12:02:39;1.10;;;0.22;;
73571;SDS011;61854;48.510;-2.770;2023-07-31T12:05:05;0.60;;;0.20;;
73571;SDS011;61854;48.510;-2.770;2023-07-31T12:07:54;0.40;;;0.20;;
73571;SDS011;61854;48.510;-2.770;2023-07-31T12:10:24;0.30;;;0.20;;
73571;SDS011;61854;48.510;-2.770;2023-07-31T12:15:44;0.40;;;0.20;;
73571;SDS011;61854;48.510;-2.770;2023-07-31T12:18:11;0.47;;;0.20;;
73571;SDS011;61854;48.510;-2.770;2023-07-31T12:20:41;0.17;;;0.17;;
73571;SDS011;61854;48.510;-2.770;2023-07-31T12:23:12;1.45;;;0.30;;
73571;SDS011;61854;48.510;-2.770;2023-07-31T12:25:39;0.35;;;0.20;;
73571;SDS011;61854;48.510;-2.770;2023-07-31T12:28:04;1.00;;;0.20;;
73571;SDS011;61854;48.510;-2.770;2023-07-31T12:30:33;2.08;;;0.32;;
73571;SDS011;61854;48.510;-2.770;2023-07-31T12:33:03;0.60;;;0.20;;
73571;SDS011;61854;48.510;-2.770;2023-07-31T12:35:37;0.20;;;0.10;;
73571;SDS011;61854;48.510;-2.770;2023-07-31T12:38:03;0.88;;;0.30;;
73571;SDS011;61854;48.510;-2.770;2023-07-31T12:40:32;0.30;;;0.20;;
73571;SDS011;61854;48.510;-2.770;2023-07-31T12:43:00;1.30;;;0.43;;
73571;SDS011;61854;48.510;-2.770;2023-07-31T12:45:28;1.45;;;0.38;;
73571;SDS011;61854;48.510;-2.770;2023-07-31T12:47:54;1.02;;;0.32;;
73571;SDS011;61854;48.510;-2.770;2023-07-31T12:50:20;3.45;;;0.70;;
73571;SDS011;61854;48.510;-2.770;2023-07-31T12:52:45;1.75;;;0.40;;
73571;SDS011;61854;48.510;-2.770;2023-07-31T12:55:11;1.90;;;0.50;;
73571;SDS011;61854;48.510;-2.770;2023-07-31T12:57:37;3.42;;;0.40;;
73571;SDS011;61854;48.510;-2.770;2023-07-31T13:00:04;1.52;;;0.50;;
73571;SDS011;61854;48.510;-2.770;2023-07-31T13:02:30;0.85;;;0.30;;
73571;SDS011;61854;48.510;-2.770;2023-07-31T13:04:55;0.00;;;0.00;;
73571;SDS011;61854;48.510;-2.770;2023-07-31T13:07:22;0.00;;;0.00;;
73571;SDS011;61854;48.510;-2.770;2023-07-31T13:09:48;0.10;;;0.10;;
73571;SDS011;61854;48.510;-2.770;2023-07-31T13:12:13;0.20;;;0.10;;
73571;SDS011;61854;48.510;-2.770;2023-07-31T13:14:39;0.00;;;0.00;;
73571;SDS011;61854;48.510;-2.770;2023-07-31T13:17:04;0.00;;;0.00;;
73571;SDS011;61854;48.510;-2.770;2023-07-31T13:19:31;0.03;;;0.03;;
73571;SDS011;61854;48.510;-2.770;2023-07-31T13:21:56;0.00;;;0.00;;
73571;SDS011;61854;48.510;-2.770;2023-07-31T13:24:22;0.20;;;0.20;;
73571;SDS011;61854;48.510;-2.770;2023-07-31T13:26:48;0.00;;;0.00;;
73571;SDS011;61854;48.510;-2.770;2023-07-31T13:29:13;0.00;;;0.00;;
73571;SDS011;61854;48.510;-2.770;2023-07-31T13:31:39;0.00;;;0.00;;
73571;SDS011;61854;48.510;-2.770;2023-07-31T13:34:04;0.10;;;0.10;;
73571;SDS011;61854;48.510;-2.770;2023-07-31T13:36:30;0.00;;;0.00;;
73571;SDS011;61854;48.510;-2.770;2023-07-31T13:38:56;0.00;;;0.00;;
73571;SDS011;61854;48.510;-2.770;2023-07-31T13:41:21;0.00;;;0.00;;
73571;SDS011;61854;48.510;-2.770;2023-07-31T13:43:47;0.00;;;0.00;;
73571;SDS011;61854;48.510;-2.770;2023-07-31T13:46:12;0.00;;;0.00;;
73571;SDS011;61854;48.510;-2.770;2023-07-31T13:48:38;0.00;;;0.00;;
73571;SDS011;61854;48.510;-2.770;2023-07-31T13:51:04;0.00;;;0.00;;
73571;SDS011;61854;48.510;-2.770;2023-07-31T13:53:29;0.00;;;0.00;;
73571;SDS011;61854;48.510;-2.770;2023-07-31T13:55:55;0.00;;;0.00;;
73571;SDS011;61854;48.510;-2.770;2023-07-31T13:58:21;0.00;;;0.00;;
73571;SDS011;61854;48.510;-2.770;2023-07-31T14:00:46;0.00;;;0.00;;
73571;SDS011;61854;48.510;-2.770;2023-07-31T14:03:12;0.00;;;0.00;;
73571;SDS011;61854;48.510;-2.770;2023-07-31T14:05:38;0.00;;;0.00;;
73571;SDS011;61854;48.510;-2.770;2023-07-31T14:08:03;0.00;;;0.00;;
73571;SDS011;61854;48.510;-2.770;2023-07-31T14:10:29;0.00;;;0.00;;
73571;SDS011;61854;48.510;-2.770;2023-07-31T14:12:54;0.00;;;0.00;;
73571;SDS011;61854;48.510;-2.770;2023-07-31T14:15:20;0.00;;;0.00;;
73571;SDS011;61854;48.510;-2.770;2023-07-31T14:17:46;0.00;;;0.00;;
73571;SDS011;61854;48.510;-2.770;2023-07-31T14:20:11;0.00;;;0.00;;
73571;SDS011;61854;48.510;-2.770;2023-07-31T14:22:37;0.00;;;0.00;;
73571;SDS011;61854;48.510;-2.770;2023-07-31T14:25:03;0.00;;;0.00;;
73571;SDS011;61854;48.510;-2.770;2023-07-31T14:27:29;0.00;;;0.00;;
73571;SDS011;61854;48.510;-2.770;2023-07-31T14:29:55;0.00;;;0.00;;
73571;SDS011;61854;48.510;-2.770;2023-07-31T14:32:21;0.00;;;0.00;;
73571;SDS011;61854;48.510;-2.770;2023-07-31T14:34:50;0.00;;;0.00;;
73571;SDS011;61854;48.510;-2.770;2023-07-31T14:37:16;0.00;;;0.00;;
73571;SDS011;61854;48.510;-2.770;2023-07-31T14:39:41;0.00;;;0.00;;
73571;SDS011;61854;48.510;-2.770;2023-07-31T14:42:08;0.00;;;0.00;;
73571;SDS011;61854;48.510;-2.770;2023-07-31T14:44:34;0.00;;;0.00;;
73571;SDS011;61854;48.510;-2.770;2023-07-31T14:47:00;0.00;;;0.00;;
73571;SDS011;61854;48.510;-2.770;2023-07-31T14:49:25;0.00;;;0.00;;